Strona główna
METAR-TAF:

METAR-TAF

Lotnisko :

Port lotniczy Dar es Salaam

Dar es Salaam, Tanzania

Szerokość geograficzna: 06-52S, Długość geograficzna: 039-12E, wysokość: 55 m

Aktualna obserwacja pogody

Raport powstał 35 minut temu, godzina 19:00 UTC
Wiatr 5 kt od południowy wschód
Temperatura 24°C
Wilgotność 83%
Ciśnienie 1020 hPa
Widzialność 10 km lub więcej
Rozproszone chmury na wysokości 1400 ft
Przerywane chmury na wysokości 7000 ft

METAR: HTDA 171900Z 13005KT 9999 SCT014 BKN070 24/21 Q1020 NOSIG

czas: 22:35 (19:35 UTC)

Prognoza

Raport powstał 2 godziny i 35 minut temu, godzina 17:00 UTC
Prognoza ważna od 17 godzina 18 UTC do 18 godzina 24 UTC
Wiatr 10 kt od południowo-południowy wschód
Widzialność 10 km lub więcej
Przerywane chmury na wysokości 1500 ft
Przejściowo
od 18 godzina 11 UTC do 18 godzina 14 UTC
deszcz

TAF: HTDA 171700Z 1718/1824 16010KT 9999 BKN015 TEMPO 1811/1814 RA

Obserwacja i prognoza pogody dla ponad 4000 lotnisk (raport METAR i TAF).

Dostępne stacje oznaczono żółtymi i czerwonymi punktami na mapie.

Najedź kursorem aby zobaczyć nazwę stacji.

Kliknij aby zobaczyć obserwacje i prognozy pogody.

Aby zmienić mapę: kliknij na zielony przycisk z czarnym krzyżykiem, aby powiększyć; na zielony przycisk z myślnikiem, aby pomniejszyć; na zielone strzałki, aby przejść do map sąsiednich.


METAR-TAF: